sensor_id;sensor_type;location;lat;lon;timestamp;P1;durP1;ratioP1;P2;durP2;ratioP2
74245;SDS011;62601;51.044;13.788;2024-01-06T00:00:21;16.80;;;11.02;;
74245;SDS011;62601;51.044;13.788;2024-01-06T00:02:43;21.25;;;12.13;;
74245;SDS011;62601;51.044;13.788;2024-01-06T00:05:03;20.98;;;13.07;;
74245;SDS011;62601;51.044;13.788;2024-01-06T00:07:24;17.90;;;12.77;;
74245;SDS011;62601;51.044;13.788;2024-01-06T00:09:46;20.20;;;11.98;;
74245;SDS011;62601;51.044;13.788;2024-01-06T00:12:06;25.00;;;14.20;;
74245;SDS011;62601;51.044;13.788;2024-01-06T00:14:28;19.23;;;12.32;;
74245;SDS011;62601;51.044;13.788;2024-01-06T00:16:49;19.13;;;12.90;;
74245;SDS011;62601;51.044;13.788;2024-01-06T00:19:09;21.05;;;13.55;;
74245;SDS011;62601;51.044;13.788;2024-01-06T00:21:29;22.17;;;13.52;;
74245;SDS011;62601;51.044;13.788;2024-01-06T00:23:49;20.52;;;13.95;;
74245;SDS011;62601;51.044;13.788;2024-01-06T00:26:09;26.42;;;13.80;;
74245;SDS011;62601;51.044;13.788;2024-01-06T00:28:31;20.00;;;13.15;;
74245;SDS011;62601;51.044;13.788;2024-01-06T00:30:55;22.52;;;13.02;;
74245;SDS011;62601;51.044;13.788;2024-01-06T00:33:16;21.00;;;13.68;;
74245;SDS011;62601;51.044;13.788;2024-01-06T00:35:36;22.13;;;14.10;;
74245;SDS011;62601;51.044;13.788;2024-01-06T00:37:58;21.58;;;13.50;;
74245;SDS011;62601;51.044;13.788;2024-01-06T00:40:18;23.60;;;13.95;;
74245;SDS011;62601;51.044;13.788;2024-01-06T00:42:38;21.23;;;14.07;;
74245;SDS011;62601;51.044;13.788;2024-01-06T00:45:00;19.70;;;13.85;;
74245;SDS011;62601;51.044;13.788;2024-01-06T00:47:22;22.88;;;13.05;;
74245;SDS011;62601;51.044;13.788;2024-01-06T00:49:42;23.50;;;14.20;;
74245;SDS011;62601;51.044;13.788;2024-01-06T00:52:03;24.42;;;14.70;;
74245;SDS011;62601;51.044;13.788;2024-01-06T00:54:25;19.77;;;14.00;;
74245;SDS011;62601;51.044;13.788;2024-01-06T00:56:45;24.00;;;13.68;;
74245;SDS011;62601;51.044;13.788;2024-01-06T00:59:05;23.33;;;13.80;;
74245;SDS011;62601;51.044;13.788;2024-01-06T01:01:25;21.38;;;13.32;;
74245;SDS011;62601;51.044;13.788;2024-01-06T01:03:45;23.45;;;13.45;;
74245;SDS011;62601;51.044;13.788;2024-01-06T01:06:07;21.10;;;13.00;;
74245;SDS011;62601;51.044;13.788;2024-01-06T01:08:28;22.73;;;13.85;;
74245;SDS011;62601;51.044;13.788;2024-01-06T01:10:49;21.40;;;13.32;;
74245;SDS011;62601;51.044;13.788;2024-01-06T01:13:10;25.02;;;14.60;;
74245;SDS011;62601;51.044;13.788;2024-01-06T01:15:30;22.20;;;14.35;;
74245;SDS011;62601;51.044;13.788;2024-01-06T01:17:51;24.00;;;13.80;;
74245;SDS011;62601;51.044;13.788;2024-01-06T01:20:13;22.92;;;14.65;;
74245;SDS011;62601;51.044;13.788;2024-01-06T01:22:34;26.15;;;14.52;;
74245;SDS011;62601;51.044;13.788;2024-01-06T01:24:55;22.63;;;12.80;;
74245;SDS011;62601;51.044;13.788;2024-01-06T01:27:15;21.98;;;14.45;;
74245;SDS011;62601;51.044;13.788;2024-01-06T01:29:37;23.98;;;13.93;;
74245;SDS011;62601;51.044;13.788;2024-01-06T01:31:57;23.00;;;14.82;;
74245;SDS011;62601;51.044;13.788;2024-01-06T01:34:18;24.63;;;14.48;;
74245;SDS011;62601;51.044;13.788;2024-01-06T01:36:40;25.38;;;16.33;;
74245;SDS011;62601;51.044;13.788;2024-01-06T01:39:00;23.27;;;14.30;;
74245;SDS011;62601;51.044;13.788;2024-01-06T01:41:21;23.58;;;14.55;;
74245;SDS011;62601;51.044;13.788;2024-01-06T01:43:42;27.50;;;15.80;;
74245;SDS011;62601;51.044;13.788;2024-01-06T01:46:02;19.50;;;13.30;;
74245;SDS011;62601;51.044;13.788;2024-01-06T01:48:25;22.38;;;14.45;;
74245;SDS011;62601;51.044;13.788;2024-01-06T01:50:45;24.33;;;15.15;;
74245;SDS011;62601;51.044;13.788;2024-01-06T01:53:05;23.75;;;15.85;;
74245;SDS011;62601;51.044;13.788;2024-01-06T01:55:26;22.45;;;15.00;;
74245;SDS011;62601;51.044;13.788;2024-01-06T01:57:47;26.60;;;14.85;;
74245;SDS011;62601;51.044;13.788;2024-01-06T02:00:08;23.60;;;14.55;;
74245;SDS011;62601;51.044;13.788;2024-01-06T02:02:29;23.90;;;14.20;;
74245;SDS011;62601;51.044;13.788;2024-01-06T02:04:51;23.70;;;14.98;;
74245;SDS011;62601;51.044;13.788;2024-01-06T02:07:11;25.67;;;15.05;;
74245;SDS011;62601;51.044;13.788;2024-01-06T02:09:32;25.75;;;14.88;;
74245;SDS011;62601;51.044;13.788;2024-01-06T02:11:53;21.55;;;13.82;;
74245;SDS011;62601;51.044;13.788;2024-01-06T02:14:13;20.88;;;14.15;;
74245;SDS011;62601;51.044;13.788;2024-01-06T02:16:35;25.45;;;15.77;;
74245;SDS011;62601;51.044;13.788;2024-01-06T02:18:55;21.77;;;14.07;;
74245;SDS011;62601;51.044;13.788;2024-01-06T02:21:17;26.50;;;14.52;;
74245;SDS011;62601;51.044;13.788;2024-01-06T02:23:37;22.25;;;14.52;;
74245;SDS011;62601;51.044;13.788;2024-01-06T02:25:57;24.88;;;14.60;;
74245;SDS011;62601;51.044;13.788;2024-01-06T02:28:19;27.35;;;14.18;;
74245;SDS011;62601;51.044;13.788;2024-01-06T02:30:39;26.27;;;14.55;;
74245;SDS011;62601;51.044;13.788;2024-01-06T02:33:00;21.85;;;13.35;;
74245;SDS011;62601;51.044;13.788;2024-01-06T02:35:22;21.45;;;14.35;;
74245;SDS011;62601;51.044;13.788;2024-01-06T02:37:42;25.63;;;15.00;;
74245;SDS011;62601;51.044;13.788;2024-01-06T02:40:03;24.70;;;15.23;;
74245;SDS011;62601;51.044;13.788;2024-01-06T02:42:25;19.83;;;14.45;;
74245;SDS011;62601;51.044;13.788;2024-01-06T02:44:45;21.77;;;13.98;;
74245;SDS011;62601;51.044;13.788;2024-01-06T02:47:06;23.80;;;15.65;;
74245;SDS011;62601;51.044;13.788;2024-01-06T02:49:28;23.67;;;14.57;;
74245;SDS011;62601;51.044;13.788;2024-01-06T02:51:48;23.10;;;13.77;;
74245;SDS011;62601;51.044;13.788;2024-01-06T02:54:09;29.73;;;16.45;;
74245;SDS011;62601;51.044;13.788;2024-01-06T02:56:31;28.15;;;15.82;;
74245;SDS011;62601;51.044;13.788;2024-01-06T02:58:51;22.23;;;14.27;;
74245;SDS011;62601;51.044;13.788;2024-01-06T03:01:11;23.40;;;14.68;;
74245;SDS011;62601;51.044;13.788;2024-01-06T03:03:32;22.67;;;14.15;;
74245;SDS011;62601;51.044;13.788;2024-01-06T03:05:52;23.10;;;14.57;;
74245;SDS011;62601;51.044;13.788;2024-01-06T03:08:14;23.77;;;14.60;;
74245;SDS011;62601;51.044;13.788;2024-01-06T03:10:35;25.67;;;15.60;;
74245;SDS011;62601;51.044;13.788;2024-01-06T03:12:55;23.08;;;14.75;;
74245;SDS011;62601;51.044;13.788;2024-01-06T03:15:16;25.08;;;14.73;;
74245;SDS011;62601;51.044;13.788;2024-01-06T03:17:36;24.73;;;15.02;;
74245;SDS011;62601;51.044;13.788;2024-01-06T03:19:57;30.85;;;15.43;;
74245;SDS011;62601;51.044;13.788;2024-01-06T03:22:18;24.55;;;14.82;;
74245;SDS011;62601;51.044;13.788;2024-01-06T03:24:39;23.92;;;15.40;;
74245;SDS011;62601;51.044;13.788;2024-01-06T03:27:01;22.00;;;14.98;;
74245;SDS011;62601;51.044;13.788;2024-01-06T03:29:28;25.52;;;15.43;;
74245;SDS011;62601;51.044;13.788;2024-01-06T03:31:48;21.20;;;14.30;;
74245;SDS011;62601;51.044;13.788;2024-01-06T03:34:10;21.95;;;13.82;;
74245;SDS011;62601;51.044;13.788;2024-01-06T03:36:30;23.10;;;15.23;;
74245;SDS011;62601;51.044;13.788;2024-01-06T03:38:51;23.83;;;14.50;;
74245;SDS011;62601;51.044;13.788;2024-01-06T03:41:12;22.30;;;15.38;;
74245;SDS011;62601;51.044;13.788;2024-01-06T03:43:33;22.23;;;15.02;;
74245;SDS011;62601;51.044;13.788;2024-01-06T03:45:54;22.60;;;14.82;;
74245;SDS011;62601;51.044;13.788;2024-01-06T03:48:15;24.23;;;14.40;;
74245;SDS011;62601;51.044;13.788;2024-01-06T03:50:35;21.10;;;14.02;;
74245;SDS011;62601;51.044;13.788;2024-01-06T03:52:55;23.80;;;14.30;;
74245;SDS011;62601;51.044;13.788;2024-01-06T03:55:16;20.88;;;13.23;;
74245;SDS011;62601;51.044;13.788;2024-01-06T03:57:36;20.33;;;13.77;;
74245;SDS011;62601;51.044;13.788;2024-01-06T03:59:57;23.50;;;14.98;;
74245;SDS011;62601;51.044;13.788;2024-01-06T04:02:18;21.98;;;14.30;;
74245;SDS011;62601;51.044;13.788;2024-01-06T04:04:40;22.83;;;14.93;;
74245;SDS011;62601;51.044;13.788;2024-01-06T04:07:00;20.85;;;13.38;;
74245;SDS011;62601;51.044;13.788;2024-01-06T04:09:21;21.80;;;13.65;;
74245;SDS011;62601;51.044;13.788;2024-01-06T04:11:41;23.75;;;14.38;;
74245;SDS011;62601;51.044;13.788;2024-01-06T04:14:01;20.85;;;13.07;;
74245;SDS011;62601;51.044;13.788;2024-01-06T04:16:23;25.63;;;14.10;;
74245;SDS011;62601;51.044;13.788;2024-01-06T04:18:43;24.00;;;13.27;;
74245;SDS011;62601;51.044;13.788;2024-01-06T04:21:03;21.23;;;13.25;;
74245;SDS011;62601;51.044;13.788;2024-01-06T04:23:25;23.63;;;13.52;;
74245;SDS011;62601;51.044;13.788;2024-01-06T04:25:45;19.50;;;12.35;;
74245;SDS011;62601;51.044;13.788;2024-01-06T04:28:07;20.27;;;13.23;;
74245;SDS011;62601;51.044;13.788;2024-01-06T04:30:27;26.30;;;14.70;;
74245;SDS011;62601;51.044;13.788;2024-01-06T04:32:48;22.20;;;13.82;;
74245;SDS011;62601;51.044;13.788;2024-01-06T04:35:10;23.95;;;13.93;;
74245;SDS011;62601;51.044;13.788;2024-01-06T04:37:30;20.65;;;13.18;;
74245;SDS011;62601;51.044;13.788;2024-01-06T04:39:50;22.83;;;13.50;;
74245;SDS011;62601;51.044;13.788;2024-01-06T04:42:11;24.15;;;13.40;;
74245;SDS011;62601;51.044;13.788;2024-01-06T04:44:33;24.17;;;12.90;;
74245;SDS011;62601;51.044;13.788;2024-01-06T04:46:55;18.35;;;12.27;;
74245;SDS011;62601;51.044;13.788;2024-01-06T04:49:16;19.27;;;12.00;;
74245;SDS011;62601;51.044;13.788;2024-01-06T04:51:36;22.48;;;13.80;;
74245;SDS011;62601;51.044;13.788;2024-01-06T04:53:56;28.27;;;13.60;;
74245;SDS011;62601;51.044;13.788;2024-01-06T04:56:18;21.98;;;13.07;;
74245;SDS011;62601;51.044;13.788;2024-01-06T04:58:38;20.15;;;12.25;;
74245;SDS011;62601;51.044;13.788;2024-01-06T05:00:59;22.65;;;13.63;;
74245;SDS011;62601;51.044;13.788;2024-01-06T05:03:20;20.13;;;13.65;;
74245;SDS011;62601;51.044;13.788;2024-01-06T05:05:40;21.63;;;12.27;;
74245;SDS011;62601;51.044;13.788;2024-01-06T05:08:02;21.23;;;11.75;;
74245;SDS011;62601;51.044;13.788;2024-01-06T05:10:23;21.77;;;14.13;;
74245;SDS011;62601;51.044;13.788;2024-01-06T05:12:43;23.75;;;13.18;;
74245;SDS011;62601;51.044;13.788;2024-01-06T05:15:04;21.48;;;12.60;;
74245;SDS011;62601;51.044;13.788;2024-01-06T05:17:26;20.60;;;12.00;;
74245;SDS011;62601;51.044;13.788;2024-01-06T05:19:46;21.13;;;12.65;;
74245;SDS011;62601;51.044;13.788;2024-01-06T05:22:07;19.00;;;12.00;;
74245;SDS011;62601;51.044;13.788;2024-01-06T05:24:27;20.40;;;12.27;;
74245;SDS011;62601;51.044;13.788;2024-01-06T05:26:49;19.25;;;11.70;;
74245;SDS011;62601;51.044;13.788;2024-01-06T05:29:10;22.13;;;12.53;;
74245;SDS011;62601;51.044;13.788;2024-01-06T05:31:30;19.10;;;12.35;;
74245;SDS011;62601;51.044;13.788;2024-01-06T05:33:50;18.83;;;12.13;;
74245;SDS011;62601;51.044;13.788;2024-01-06T05:36:12;20.23;;;12.50;;
74245;SDS011;62601;51.044;13.788;2024-01-06T05:38:32;19.45;;;12.82;;
74245;SDS011;62601;51.044;13.788;2024-01-06T05:40:52;18.40;;;11.07;;
74245;SDS011;62601;51.044;13.788;2024-01-06T05:43:13;16.48;;;12.30;;
74245;SDS011;62601;51.044;13.788;2024-01-06T05:45:35;17.25;;;11.88;;
74245;SDS011;62601;51.044;13.788;2024-01-06T05:47:56;15.88;;;11.77;;
74245;SDS011;62601;51.044;13.788;2024-01-06T05:50:17;22.33;;;12.45;;
74245;SDS011;62601;51.044;13.788;2024-01-06T05:52:37;25.38;;;15.02;;
74245;SDS011;62601;51.044;13.788;2024-01-06T05:54:59;20.00;;;12.50;;
74245;SDS011;62601;51.044;13.788;2024-01-06T05:57:20;15.90;;;11.80;;
74245;SDS011;62601;51.044;13.788;2024-01-06T05:59:40;22.98;;;13.00;;
74245;SDS011;62601;51.044;13.788;2024-01-06T06:02:00;25.25;;;13.82;;
74245;SDS011;62601;51.044;13.788;2024-01-06T06:04:22;18.48;;;11.75;;
74245;SDS011;62601;51.044;13.788;2024-01-06T06:06:42;18.00;;;12.18;;
74245;SDS011;62601;51.044;13.788;2024-01-06T06:09:02;19.73;;;12.88;;
74245;SDS011;62601;51.044;13.788;2024-01-06T06:11:24;22.48;;;13.90;;
74245;SDS011;62601;51.044;13.788;2024-01-06T06:13:44;22.17;;;13.48;;
74245;SDS011;62601;51.044;13.788;2024-01-06T06:16:04;22.45;;;13.23;;
74245;SDS011;62601;51.044;13.788;2024-01-06T06:18:25;21.35;;;13.45;;
74245;SDS011;62601;51.044;13.788;2024-01-06T06:20:49;21.50;;;13.80;;
74245;SDS011;62601;51.044;13.788;2024-01-06T06:23:10;22.10;;;13.57;;
74245;SDS011;62601;51.044;13.788;2024-01-06T06:25:31;22.48;;;13.93;;
74245;SDS011;62601;51.044;13.788;2024-01-06T06:27:52;20.70;;;13.30;;
74245;SDS011;62601;51.044;13.788;2024-01-06T06:30:14;21.75;;;13.23;;
74245;SDS011;62601;51.044;13.788;2024-01-06T06:32:34;23.55;;;15.10;;
74245;SDS011;62601;51.044;13.788;2024-01-06T06:34:58;22.48;;;14.25;;
74245;SDS011;62601;51.044;13.788;2024-01-06T06:37:19;23.50;;;15.27;;
74245;SDS011;62601;51.044;13.788;2024-01-06T06:39:39;26.40;;;15.02;;
74245;SDS011;62601;51.044;13.788;2024-01-06T06:42:01;46.60;;;26.25;;
74245;SDS011;62601;51.044;13.788;2024-01-06T06:44:23;26.33;;;15.85;;
74245;SDS011;62601;51.044;13.788;2024-01-06T06:46:43;23.80;;;15.88;;
74245;SDS011;62601;51.044;13.788;2024-01-06T06:49:04;31.30;;;17.30;;
74245;SDS011;62601;51.044;13.788;2024-01-06T06:51:25;26.35;;;15.77;;
74245;SDS011;62601;51.044;13.788;2024-01-06T06:53:45;21.40;;;14.75;;
74245;SDS011;62601;51.044;13.788;2024-01-06T06:56:06;27.45;;;14.95;;
74245;SDS011;62601;51.044;13.788;2024-01-06T06:58:27;28.80;;;16.70;;
74245;SDS011;62601;51.044;13.788;2024-01-06T07:00:48;30.25;;;16.13;;
74245;SDS011;62601;51.044;13.788;2024-01-06T07:03:10;31.60;;;17.35;;
74245;SDS011;62601;51.044;13.788;2024-01-06T07:05:31;26.67;;;16.38;;
74245;SDS011;62601;51.044;13.788;2024-01-06T07:07:52;28.10;;;16.55;;
74245;SDS011;62601;51.044;13.788;2024-01-06T07:10:13;34.08;;;17.27;;
74245;SDS011;62601;51.044;13.788;2024-01-06T07:12:33;31.13;;;17.20;;
74245;SDS011;62601;51.044;13.788;2024-01-06T07:14:54;32.55;;;17.70;;
74245;SDS011;62601;51.044;13.788;2024-01-06T07:17:14;32.42;;;17.45;;
74245;SDS011;62601;51.044;13.788;2024-01-06T07:19:35;31.48;;;16.08;;
74245;SDS011;62601;51.044;13.788;2024-01-06T07:21:57;33.78;;;18.20;;
74245;SDS011;62601;51.044;13.788;2024-01-06T07:24:17;29.83;;;17.38;;
74245;SDS011;62601;51.044;13.788;2024-01-06T07:26:37;36.40;;;17.10;;
74245;SDS011;62601;51.044;13.788;2024-01-06T07:28:58;28.52;;;15.98;;
74245;SDS011;62601;51.044;13.788;2024-01-06T07:31:18;35.33;;;17.05;;
74245;SDS011;62601;51.044;13.788;2024-01-06T07:33:40;32.28;;;17.65;;
74245;SDS011;62601;51.044;13.788;2024-01-06T07:36:00;37.90;;;18.95;;
74245;SDS011;62601;51.044;13.788;2024-01-06T07:38:20;31.52;;;18.52;;
74245;SDS011;62601;51.044;13.788;2024-01-06T07:40:40;36.53;;;17.58;;
74245;SDS011;62601;51.044;13.788;2024-01-06T07:43:00;39.58;;;19.35;;
74245;SDS011;62601;51.044;13.788;2024-01-06T07:45:20;37.70;;;18.90;;
74245;SDS011;62601;51.044;13.788;2024-01-06T07:47:41;32.55;;;18.02;;
74245;SDS011;62601;51.044;13.788;2024-01-06T07:50:03;30.67;;;17.70;;
74245;SDS011;62601;51.044;13.788;2024-01-06T07:52:23;34.88;;;18.25;;
74245;SDS011;62601;51.044;13.788;2024-01-06T07:54:45;30.02;;;17.95;;
74245;SDS011;62601;51.044;13.788;2024-01-06T07:57:05;51.58;;;27.67;;
74245;SDS011;62601;51.044;13.788;2024-01-06T07:59:25;39.30;;;20.67;;
74245;SDS011;62601;51.044;13.788;2024-01-06T08:01:46;33.22;;;17.80;;
74245;SDS011;62601;51.044;13.788;2024-01-06T08:04:06;40.17;;;19.42;;
74245;SDS011;62601;51.044;13.788;2024-01-06T08:06:28;37.63;;;18.40;;
74245;SDS011;62601;51.044;13.788;2024-01-06T08:08:50;35.38;;;19.20;;
74245;SDS011;62601;51.044;13.788;2024-01-06T08:11:11;38.35;;;19.38;;
74245;SDS011;62601;51.044;13.788;2024-01-06T08:13:33;36.35;;;18.92;;
74245;SDS011;62601;51.044;13.788;2024-01-06T08:15:53;32.50;;;17.60;;
74245;SDS011;62601;51.044;13.788;2024-01-06T08:18:14;35.55;;;18.55;;
74245;SDS011;62601;51.044;13.788;2024-01-06T08:20:34;34.95;;;18.05;;
74245;SDS011;62601;51.044;13.788;2024-01-06T08:22:56;37.30;;;18.05;;
74245;SDS011;62601;51.044;13.788;2024-01-06T08:25:17;35.72;;;18.80;;
74245;SDS011;62601;51.044;13.788;2024-01-06T08:27:39;31.95;;;18.17;;
74245;SDS011;62601;51.044;13.788;2024-01-06T08:29:59;33.92;;;17.30;;
74245;SDS011;62601;51.044;13.788;2024-01-06T08:32:21;37.38;;;18.35;;
74245;SDS011;62601;51.044;13.788;2024-01-06T08:34:42;36.67;;;18.58;;
74245;SDS011;62601;51.044;13.788;2024-01-06T08:37:03;47.40;;;17.73;;
74245;SDS011;62601;51.044;13.788;2024-01-06T08:39:24;50.90;;;27.75;;
74245;SDS011;62601;51.044;13.788;2024-01-06T08:41:46;34.78;;;20.20;;
74245;SDS011;62601;51.044;13.788;2024-01-06T08:44:06;31.42;;;15.90;;
74245;SDS011;62601;51.044;13.788;2024-01-06T08:46:27;38.95;;;19.70;;
74245;SDS011;62601;51.044;13.788;2024-01-06T08:48:47;34.10;;;17.42;;
74245;SDS011;62601;51.044;13.788;2024-01-06T08:51:09;39.28;;;19.10;;
74245;SDS011;62601;51.044;13.788;2024-01-06T08:53:31;34.65;;;19.30;;
74245;SDS011;62601;51.044;13.788;2024-01-06T08:55:52;33.08;;;18.90;;
74245;SDS011;62601;51.044;13.788;2024-01-06T08:58:14;38.15;;;18.08;;
74245;SDS011;62601;51.044;13.788;2024-01-06T09:00:34;36.35;;;18.35;;
74245;SDS011;62601;51.044;13.788;2024-01-06T09:02:55;35.22;;;18.17;;
74245;SDS011;62601;51.044;13.788;2024-01-06T09:05:17;34.67;;;19.35;;
74245;SDS011;62601;51.044;13.788;2024-01-06T09:07:38;33.15;;;17.55;;
74245;SDS011;62601;51.044;13.788;2024-01-06T09:09:58;34.75;;;19.73;;
74245;SDS011;62601;51.044;13.788;2024-01-06T09:12:20;35.55;;;19.23;;
74245;SDS011;62601;51.044;13.788;2024-01-06T09:14:41;32.85;;;18.00;;
74245;SDS011;62601;51.044;13.788;2024-01-06T09:17:02;32.50;;;18.58;;
74245;SDS011;62601;51.044;13.788;2024-01-06T09:19:22;30.40;;;17.80;;
74245;SDS011;62601;51.044;13.788;2024-01-06T09:21:44;36.15;;;19.58;;
74245;SDS011;62601;51.044;13.788;2024-01-06T09:24:04;30.10;;;17.95;;
74245;SDS011;62601;51.044;13.788;2024-01-06T09:26:25;29.35;;;18.30;;
74245;SDS011;62601;51.044;13.788;2024-01-06T09:28:45;43.67;;;18.90;;
74245;SDS011;62601;51.044;13.788;2024-01-06T09:31:05;37.42;;;18.55;;
74245;SDS011;62601;51.044;13.788;2024-01-06T09:33:25;31.85;;;17.58;;
74245;SDS011;62601;51.044;13.788;2024-01-06T09:35:45;29.30;;;17.30;;
74245;SDS011;62601;51.044;13.788;2024-01-06T09:38:10;34.58;;;19.05;;
74245;SDS011;62601;51.044;13.788;2024-01-06T09:40:32;33.47;;;18.30;;
74245;SDS011;62601;51.044;13.788;2024-01-06T09:42:55;33.45;;;16.75;;
74245;SDS011;62601;51.044;13.788;2024-01-06T09:45:15;28.73;;;16.98;;
74245;SDS011;62601;51.044;13.788;2024-01-06T09:47:37;33.35;;;17.92;;
74245;SDS011;62601;51.044;13.788;2024-01-06T09:50:00;32.20;;;17.17;;
74245;SDS011;62601;51.044;13.788;2024-01-06T09:52:22;32.88;;;18.35;;
74245;SDS011;62601;51.044;13.788;2024-01-06T09:54:44;35.40;;;21.35;;
74245;SDS011;62601;51.044;13.788;2024-01-06T09:57:07;30.40;;;17.85;;
74245;SDS011;62601;51.044;13.788;2024-01-06T09:59:27;27.95;;;16.13;;
74245;SDS011;62601;51.044;13.788;2024-01-06T10:01:49;31.35;;;16.23;;
74245;SDS011;62601;51.044;13.788;2024-01-06T10:04:09;30.05;;;19.75;;
74245;SDS011;62601;51.044;13.788;2024-01-06T10:06:31;27.13;;;16.88;;
74245;SDS011;62601;51.044;13.788;2024-01-06T10:08:52;26.58;;;16.48;;
74245;SDS011;62601;51.044;13.788;2024-01-06T10:11:13;28.55;;;17.00;;
74245;SDS011;62601;51.044;13.788;2024-01-06T10:13:34;25.23;;;16.02;;
74245;SDS011;62601;51.044;13.788;2024-01-06T10:15:54;29.83;;;16.98;;
74245;SDS011;62601;51.044;13.788;2024-01-06T10:18:16;26.27;;;16.02;;
74245;SDS011;62601;51.044;13.788;2024-01-06T10:20:37;23.92;;;14.48;;
74245;SDS011;62601;51.044;13.788;2024-01-06T10:22:57;27.13;;;16.70;;
74245;SDS011;62601;51.044;13.788;2024-01-06T10:25:24;29.42;;;17.70;;
74245;SDS011;62601;51.044;13.788;2024-01-06T10:27:45;30.35;;;18.13;;
74245;SDS011;62601;51.044;13.788;2024-01-06T10:30:09;53.85;;;28.00;;
74245;SDS011;62601;51.044;13.788;2024-01-06T10:32:34;31.38;;;16.35;;
74245;SDS011;62601;51.044;13.788;2024-01-06T10:34:59;26.52;;;16.38;;
74245;SDS011;62601;51.044;13.788;2024-01-06T10:37:19;26.20;;;15.77;;
74245;SDS011;62601;51.044;13.788;2024-01-06T10:39:40;39.53;;;20.10;;
74245;SDS011;62601;51.044;13.788;2024-01-06T10:42:01;28.05;;;16.80;;
74245;SDS011;62601;51.044;13.788;2024-01-06T10:44:22;30.33;;;15.95;;
74245;SDS011;62601;51.044;13.788;2024-01-06T10:46:44;33.28;;;22.75;;
74245;SDS011;62601;51.044;13.788;2024-01-06T10:49:05;33.40;;;18.90;;
74245;SDS011;62601;51.044;13.788;2024-01-06T10:51:27;26.45;;;16.45;;
74245;SDS011;62601;51.044;13.788;2024-01-06T10:53:48;32.28;;;19.15;;
74245;SDS011;62601;51.044;13.788;2024-01-06T10:56:10;28.40;;;19.42;;
74245;SDS011;62601;51.044;13.788;2024-01-06T10:58:32;28.08;;;16.67;;
74245;SDS011;62601;51.044;13.788;2024-01-06T11:00:52;28.10;;;16.92;;
74245;SDS011;62601;51.044;13.788;2024-01-06T11:03:14;28.98;;;17.13;;
74245;SDS011;62601;51.044;13.788;2024-01-06T11:05:36;31.77;;;18.08;;
74245;SDS011;62601;51.044;13.788;2024-01-06T11:07:57;32.05;;;18.23;;
74245;SDS011;62601;51.044;13.788;2024-01-06T11:10:18;23.75;;;15.45;;
74245;SDS011;62601;51.044;13.788;2024-01-06T11:12:39;28.00;;;17.92;;
74245;SDS011;62601;51.044;13.788;2024-01-06T11:15:00;25.35;;;16.83;;
74245;SDS011;62601;51.044;13.788;2024-01-06T11:20:07;26.40;;;14.93;;
74245;SDS011;62601;51.044;13.788;2024-01-06T11:22:29;24.05;;;15.32;;
74245;SDS011;62601;51.044;13.788;2024-01-06T11:24:50;23.80;;;16.23;;
74245;SDS011;62601;51.044;13.788;2024-01-06T11:27:16;28.15;;;16.48;;
74245;SDS011;62601;51.044;13.788;2024-01-06T11:29:38;26.25;;;16.67;;
74245;SDS011;62601;51.044;13.788;2024-01-06T11:34:39;22.38;;;15.18;;
74245;SDS011;62601;51.044;13.788;2024-01-06T11:36:59;24.42;;;14.55;;
74245;SDS011;62601;51.044;13.788;2024-01-06T11:39:40;23.80;;;16.92;;
74245;SDS011;62601;51.044;13.788;2024-01-06T11:42:00;24.17;;;15.65;;
74245;SDS011;62601;51.044;13.788;2024-01-06T11:44:22;22.25;;;15.18;;
74245;SDS011;62601;51.044;13.788;2024-01-06T11:46:42;22.67;;;15.18;;
74245;SDS011;62601;51.044;13.788;2024-01-06T11:49:05;26.83;;;14.60;;
74245;SDS011;62601;51.044;13.788;2024-01-06T11:51:28;42.92;;;26.45;;
74245;SDS011;62601;51.044;13.788;2024-01-06T11:53:49;25.75;;;17.67;;
74245;SDS011;62601;51.044;13.788;2024-01-06T11:56:10;21.17;;;13.48;;
74245;SDS011;62601;51.044;13.788;2024-01-06T11:58:31;19.05;;;12.88;;
74245;SDS011;62601;51.044;13.788;2024-01-06T12:00:55;22.38;;;14.15;;
74245;SDS011;62601;51.044;13.788;2024-01-06T12:03:17;23.77;;;14.07;;
74245;SDS011;62601;51.044;13.788;2024-01-06T12:05:38;19.98;;;13.68;;
74245;SDS011;62601;51.044;13.788;2024-01-06T12:08:00;20.40;;;13.23;;
74245;SDS011;62601;51.044;13.788;2024-01-06T12:10:22;21.80;;;13.30;;
74245;SDS011;62601;51.044;13.788;2024-01-06T12:12:42;24.02;;;15.70;;
74245;SDS011;62601;51.044;13.788;2024-01-06T12:15:04;23.15;;;14.60;;
74245;SDS011;62601;51.044;13.788;2024-01-06T12:17:28;22.38;;;15.02;;
74245;SDS011;62601;51.044;13.788;2024-01-06T12:19:49;24.00;;;14.55;;
74245;SDS011;62601;51.044;13.788;2024-01-06T12:22:11;20.48;;;14.50;;
74245;SDS011;62601;51.044;13.788;2024-01-06T12:24:33;20.75;;;14.02;;
74245;SDS011;62601;51.044;13.788;2024-01-06T12:26:55;22.83;;;15.85;;
74245;SDS011;62601;51.044;13.788;2024-01-06T12:29:16;22.42;;;15.10;;
74245;SDS011;62601;51.044;13.788;2024-01-06T12:31:41;23.40;;;16.35;;
74245;SDS011;62601;51.044;13.788;2024-01-06T12:34:01;26.98;;;17.05;;
74245;SDS011;62601;51.044;13.788;2024-01-06T12:36:24;26.10;;;16.55;;
74245;SDS011;62601;51.044;13.788;2024-01-06T12:38:45;29.92;;;18.17;;
74245;SDS011;62601;51.044;13.788;2024-01-06T12:41:05;32.10;;;19.27;;
74245;SDS011;62601;51.044;13.788;2024-01-06T12:43:26;27.25;;;18.33;;
74245;SDS011;62601;51.044;13.788;2024-01-06T12:45:47;26.45;;;17.63;;
74245;SDS011;62601;51.044;13.788;2024-01-06T12:48:07;26.33;;;17.50;;
74245;SDS011;62601;51.044;13.788;2024-01-06T12:50:27;26.67;;;17.92;;
74245;SDS011;62601;51.044;13.788;2024-01-06T12:52:48;29.08;;;18.10;;
74245;SDS011;62601;51.044;13.788;2024-01-06T12:55:09;29.42;;;17.10;;
74245;SDS011;62601;51.044;13.788;2024-01-06T12:57:29;30.02;;;19.13;;
74245;SDS011;62601;51.044;13.788;2024-01-06T12:59:50;30.88;;;19.58;;
74245;SDS011;62601;51.044;13.788;2024-01-06T13:02:11;27.85;;;19.30;;
74245;SDS011;62601;51.044;13.788;2024-01-06T13:04:31;32.90;;;22.27;;
74245;SDS011;62601;51.044;13.788;2024-01-06T13:06:51;32.33;;;20.00;;
74245;SDS011;62601;51.044;13.788;2024-01-06T13:09:13;39.13;;;26.92;;
74245;SDS011;62601;51.044;13.788;2024-01-06T13:11:34;27.52;;;17.70;;
74245;SDS011;62601;51.044;13.788;2024-01-06T13:13:54;24.80;;;17.15;;
74245;SDS011;62601;51.044;13.788;2024-01-06T13:16:16;22.27;;;14.77;;
74245;SDS011;62601;51.044;13.788;2024-01-06T13:18:36;19.00;;;13.25;;
74245;SDS011;62601;51.044;13.788;2024-01-06T13:20:56;18.23;;;13.43;;
74245;SDS011;62601;51.044;13.788;2024-01-06T13:23:17;20.92;;;14.73;;
74245;SDS011;62601;51.044;13.788;2024-01-06T13:25:39;18.08;;;12.73;;
74245;SDS011;62601;51.044;13.788;2024-01-06T13:27:59;19.50;;;13.45;;
74245;SDS011;62601;51.044;13.788;2024-01-06T13:30:20;19.45;;;13.60;;
74245;SDS011;62601;51.044;13.788;2024-01-06T13:32:40;24.92;;;16.15;;
74245;SDS011;62601;51.044;13.788;2024-01-06T13:35:02;28.80;;;18.88;;
74245;SDS011;62601;51.044;13.788;2024-01-06T13:37:23;52.78;;;31.48;;